createdAt,value
2023-02-06T00:01:22.837Z,77.65
2023-02-06T00:03:52.104Z,78.49
2023-02-06T00:06:21.020Z,78.51
2023-02-06T00:08:52.007Z,78.32
2023-02-06T00:11:22.061Z,78.59
2023-02-06T00:13:51.589Z,78.68
2023-02-06T00:16:24.781Z,78.33
2023-02-06T00:18:59.925Z,78.47
2023-02-06T00:21:30.554Z,78.60
2023-02-06T00:24:02.944Z,79.16
2023-02-06T00:26:32.920Z,78.75
2023-02-06T00:29:02.144Z,78.72
2023-02-06T00:31:31.186Z,78.74
2023-02-06T00:34:00.642Z,79.35
2023-02-06T00:36:32.711Z,79.24
2023-02-06T00:39:03.431Z,79.18
2023-02-06T00:41:32.522Z,79.84
2023-02-06T00:44:01.701Z,79.88
2023-02-06T00:46:32.963Z,79.90
2023-02-06T00:49:12.676Z,79.08
2023-02-06T00:51:41.320Z,79.80
2023-02-06T00:54:12.054Z,79.93
2023-02-06T00:57:06.670Z,80.54
2023-02-06T00:59:35.747Z,80.14
2023-02-06T01:02:15.120Z,79.41
2023-02-06T01:04:44.285Z,79.23
2023-02-06T01:07:13.275Z,79.64
2023-02-06T01:09:43.789Z,80.08
2023-02-06T01:12:12.792Z,79.57
2023-02-06T01:14:41.994Z,79.99
2023-02-06T01:17:13.397Z,79.75
2023-02-06T01:19:42.568Z,80.27
2023-02-06T01:22:11.991Z,80.19
2023-02-06T01:24:40.928Z,80.16
2023-02-06T01:27:13.415Z,80.32
2023-02-06T01:30:03.882Z,80.20
2023-02-06T01:32:33.344Z,80.50
2023-02-06T01:35:04.781Z,80.49
2023-02-06T01:37:34.183Z,80.82
2023-02-06T01:40:03.016Z,80.33
2023-02-06T01:42:35.749Z,80.31
2023-02-06T01:45:37.581Z,80.38
2023-02-06T01:48:12.194Z,80.54
2023-02-06T01:50:43.996Z,79.99
2023-02-06T01:53:16.993Z,80.74
2023-02-06T01:55:48.023Z,80.58
2023-02-06T01:58:22.859Z,80.08
2023-02-06T02:00:51.912Z,79.97
2023-02-06T02:03:21.004Z,79.95
2023-02-06T02:05:52.807Z,80.65
2023-02-06T02:08:26.368Z,80.23
2023-02-06T02:10:55.658Z,80.43
2023-02-06T02:13:26.240Z,79.69
2023-02-06T02:16:01.268Z,79.46
2023-02-06T02:18:42.825Z,79.72
2023-02-06T02:21:39.181Z,79.53
2023-02-06T02:24:15.073Z,79.42
2023-02-06T02:27:15.193Z,80.12
2023-02-06T02:30:12.002Z,79.63
2023-02-06T02:33:14.101Z,80.51
2023-02-06T02:35:51.800Z,80.63
2023-02-06T02:38:28.987Z,80.51
2023-02-06T02:41:08.687Z,80.57
2023-02-06T02:43:44.115Z,80.21
2023-02-06T02:46:22.594Z,80.09
2023-02-06T02:48:57.698Z,80.47
2023-02-06T02:51:28.980Z,80.90
2023-02-06T02:53:58.257Z,80.35
2023-02-06T02:56:28.702Z,80.39
2023-02-06T02:59:05.334Z,80.04
2023-02-06T03:04:58.763Z,80.45
2023-02-06T03:07:37.393Z,80.41
2023-02-06T03:10:13.627Z,80.72
2023-02-06T03:12:49.584Z,80.53
2023-02-06T03:15:25.973Z,80.37
2023-02-06T03:17:59.882Z,80.55
2023-02-06T03:20:28.981Z,79.87
2023-02-06T03:23:02.164Z,80.51
2023-02-06T03:25:36.025Z,80.28
2023-02-06T03:28:07.165Z,80.31
2023-02-06T03:30:37.016Z,80.89
2023-02-06T03:33:08.314Z,81.58
2023-02-06T03:35:38.644Z,81.23
2023-02-06T03:38:10.269Z,81.75
2023-02-06T03:40:41.722Z,81.09
2023-02-06T03:43:14.296Z,80.74
2023-02-06T03:45:44.623Z,80.84
2023-02-06T03:48:16.158Z,81.63
2023-02-06T03:50:46.299Z,81.55
2023-02-06T03:53:18.263Z,81.15
2023-02-06T03:55:48.371Z,80.90
2023-02-06T03:58:17.226Z,81.10
2023-02-06T04:00:47.809Z,82.47
2023-02-06T04:03:20.289Z,81.68
2023-02-06T04:05:49.896Z,81.15
2023-02-06T04:08:20.521Z,80.58
2023-02-06T04:10:52.267Z,81.20
2023-02-06T04:13:21.585Z,81.09
2023-02-06T04:15:51.202Z,81.37
2023-02-06T04:18:25.486Z,81.61
2023-02-06T04:24:15.994Z,81.03
2023-02-06T04:27:01.721Z,81.65
2023-02-06T04:29:37.262Z,81.80
2023-02-06T04:32:06.772Z,82.13
2023-02-06T04:34:38.840Z,82.49
2023-02-06T04:37:08.257Z,82.46
2023-02-06T04:39:41.536Z,82.40
2023-02-06T04:42:10.683Z,81.72
2023-02-06T04:44:39.729Z,81.81
2023-02-06T04:47:08.799Z,81.76
2023-02-06T04:49:37.921Z,82.17
2023-02-06T04:52:07.017Z,81.74
2023-02-06T04:54:35.997Z,82.84
2023-02-06T04:57:06.460Z,82.45
2023-02-06T04:59:36.036Z,81.80
2023-02-06T05:02:04.919Z,81.68
2023-02-06T05:04:43.660Z,81.75
2023-02-06T05:07:12.966Z,82.63
2023-02-06T05:09:42.062Z,82.68
2023-02-06T05:12:14.263Z,82.55
2023-02-06T05:14:43.846Z,81.92
2023-02-06T05:17:12.799Z,81.89
2023-02-06T05:19:41.630Z,82.22
2023-02-06T05:22:14.112Z,81.88
2023-02-06T05:24:45.233Z,82.59
2023-02-06T05:27:17.101Z,82.17
2023-02-06T05:29:46.178Z,81.55
2023-02-06T05:32:15.289Z,82.40
2023-02-06T05:34:44.390Z,82.35
2023-02-06T05:37:13.283Z,81.43
2023-02-06T05:39:42.374Z,81.11
2023-02-06T05:42:11.982Z,80.84
2023-02-06T05:44:42.102Z,81.73
2023-02-06T05:47:11.275Z,82.01
2023-02-06T05:49:40.401Z,82.26
2023-02-06T05:52:11.930Z,82.17
2023-02-06T05:54:41.037Z,82.50
2023-02-06T05:57:14.553Z,82.96
2023-02-06T05:59:45.400Z,82.77
2023-02-06T06:02:17.869Z,83.13
2023-02-06T06:04:47.356Z,82.97
2023-02-06T06:07:16.372Z,82.94
2023-02-06T06:09:47.297Z,82.85
2023-02-06T06:12:16.466Z,82.40
2023-02-06T06:14:46.933Z,82.49
2023-02-06T06:17:16.757Z,82.36
2023-02-06T06:19:45.848Z,82.02
2023-02-06T06:22:16.380Z,82.47
2023-02-06T06:24:45.573Z,83.06
2023-02-06T06:27:15.358Z,83.35
2023-02-06T06:29:44.587Z,83.33
2023-02-06T06:32:16.140Z,82.98
2023-02-06T06:34:45.038Z,83.25
2023-02-06T06:37:14.482Z,82.69
2023-02-06T06:40:12.708Z,82.26
2023-02-06T06:42:56.228Z,81.82
2023-02-06T06:45:25.794Z,82.15
2023-02-06T06:47:56.593Z,82.40
2023-02-06T06:50:33.573Z,82.29
2023-02-06T06:53:03.080Z,82.66
2023-02-06T06:55:31.863Z,83.26
2023-02-06T06:58:01.067Z,82.69
2023-02-06T07:00:41.634Z,83.00
2023-02-06T07:03:12.736Z,83.32
2023-02-06T07:05:42.489Z,83.47
2023-02-06T07:08:13.071Z,83.94
2023-02-06T07:10:42.123Z,84.35
2023-02-06T07:13:16.908Z,84.46
2023-02-06T07:15:46.034Z,84.44
2023-02-06T07:18:17.464Z,83.75
2023-02-06T07:20:46.564Z,83.91
2023-02-06T07:23:15.689Z,83.94
2023-02-06T07:25:44.433Z,83.76
2023-02-06T07:28:13.516Z,83.37
2023-02-06T07:30:42.396Z,83.72
2023-02-06T07:33:11.340Z,83.87
2023-02-06T07:35:43.628Z,84.01
2023-02-06T07:38:12.827Z,84.18
2023-02-06T07:40:45.646Z,84.71
2023-02-06T07:43:15.259Z,84.49
2023-02-06T07:45:44.845Z,84.87
2023-02-06T07:48:17.164Z,85.34
2023-02-06T07:50:47.421Z,85.26
2023-02-06T07:53:16.637Z,85.81
2023-02-06T07:55:45.924Z,85.54
2023-02-06T07:58:17.708Z,85.40
2023-02-06T08:00:46.585Z,84.72
2023-02-06T08:03:18.905Z,85.02
2023-02-06T08:05:49.486Z,84.73
2023-02-06T08:08:24.824Z,84.53
2023-02-06T08:10:53.896Z,84.32
2023-02-06T08:13:22.910Z,84.56
2023-02-06T08:15:52.085Z,84.41
2023-02-06T08:18:21.377Z,84.16
2023-02-06T08:20:53.877Z,84.44
2023-02-06T08:23:23.862Z,84.80
2023-02-06T08:25:52.897Z,84.66
2023-02-06T08:28:21.975Z,84.65
2023-02-06T08:30:51.137Z,83.95
2023-02-06T08:33:20.269Z,83.55
2023-02-06T08:35:49.671Z,84.14
2023-02-06T08:38:23.700Z,84.85
2023-02-06T08:40:52.479Z,84.03
2023-02-06T08:43:21.746Z,84.10
2023-02-06T08:45:51.039Z,83.90
2023-02-06T08:48:20.499Z,83.20
2023-02-06T08:50:49.594Z,83.88
2023-02-06T08:53:20.320Z,84.46
2023-02-06T08:55:50.463Z,84.88
2023-02-06T08:58:30.215Z,84.27
2023-02-06T09:01:00.172Z,84.92
2023-02-06T09:03:31.579Z,84.84
2023-02-06T09:06:09.404Z,84.26
2023-02-06T09:08:41.395Z,82.46
2023-02-06T09:11:11.641Z,82.87
2023-02-06T09:13:41.552Z,81.97
2023-02-06T09:16:11.160Z,81.91
2023-02-06T09:18:40.566Z,80.79
2023-02-06T09:21:11.738Z,80.14
2023-02-06T09:23:45.015Z,79.28
2023-02-06T09:26:16.123Z,78.80
2023-02-06T09:28:45.278Z,79.37
2023-02-06T09:31:14.291Z,78.00
2023-02-06T09:33:46.220Z,76.72
2023-02-06T09:36:18.287Z,76.83
2023-02-06T09:38:50.127Z,76.03
2023-02-06T09:41:21.496Z,75.97
2023-02-06T09:43:53.146Z,77.02
2023-02-06T09:46:27.529Z,77.15
2023-02-06T09:49:00.037Z,78.12
2023-02-06T09:51:40.188Z,78.67
2023-02-06T09:54:18.469Z,77.90
2023-02-06T09:56:51.626Z,77.87
2023-02-06T09:59:25.648Z,75.09
2023-02-06T10:02:02.190Z,76.67
2023-02-06T10:04:39.964Z,77.60
2023-02-06T10:07:19.404Z,76.09
2023-02-06T10:09:53.845Z,75.81
2023-02-06T10:12:28.579Z,74.99
2023-02-06T10:15:04.532Z,74.62
2023-02-06T10:17:36.881Z,74.52
2023-02-06T10:20:11.943Z,74.69
2023-02-06T10:22:45.648Z,73.11
2023-02-06T10:25:22.832Z,73.77
2023-02-06T10:27:55.890Z,73.65
2023-02-06T10:30:39.436Z,73.69
2023-02-06T10:33:25.275Z,73.29
2023-02-06T10:35:59.248Z,72.18
2023-02-06T10:38:43.413Z,71.02
2023-02-06T10:41:22.880Z,71.23
2023-02-06T10:43:54.279Z,72.16
2023-02-06T10:46:43.103Z,70.50
2023-02-06T10:49:18.319Z,71.52
2023-02-06T10:51:49.248Z,72.11
2023-02-06T10:54:20.764Z,72.37
2023-02-06T10:56:53.374Z,72.21
2023-02-06T10:59:28.617Z,69.88
2023-02-06T11:02:07.317Z,70.86
2023-02-06T11:04:39.300Z,71.76
2023-02-06T11:07:10.942Z,70.92
2023-02-06T11:09:39.864Z,70.50
2023-02-06T11:12:16.521Z,70.86
2023-02-06T11:14:45.517Z,70.03
2023-02-06T11:17:15.538Z,69.20
2023-02-06T11:19:46.633Z,69.53
2023-02-06T11:22:17.193Z,69.95
2023-02-06T11:25:01.892Z,69.65
2023-02-06T11:27:34.517Z,69.02
2023-02-06T11:30:09.654Z,69.21
2023-02-06T11:32:41.209Z,69.60
2023-02-06T11:35:23.241Z,69.39
2023-02-06T11:37:55.179Z,68.63
2023-02-06T11:40:29.637Z,68.45
2023-02-06T11:43:18.571Z,68.72
2023-02-06T11:45:48.732Z,68.95
2023-02-06T11:48:42.835Z,67.46
2023-02-06T11:51:13.840Z,68.16
2023-02-06T11:53:56.613Z,68.24
2023-02-06T11:56:25.678Z,68.99
2023-02-06T11:59:07.375Z,69.01
2023-02-06T12:01:43.541Z,69.02
2023-02-06T12:04:23.902Z,68.47
2023-02-06T12:06:57.630Z,68.17
2023-02-06T12:09:26.873Z,68.97
2023-02-06T12:12:21.361Z,66.77
2023-02-06T12:14:55.893Z,68.62
2023-02-06T12:17:28.641Z,68.21
2023-02-06T12:20:05.117Z,68.80
2023-02-06T12:22:41.813Z,69.30
2023-02-06T12:25:24.043Z,68.04
2023-02-06T12:27:53.443Z,67.90
2023-02-06T12:30:35.983Z,68.38
2023-02-06T12:33:08.552Z,68.57
2023-02-06T12:35:47.478Z,67.50
2023-02-06T12:38:22.903Z,67.42
2023-02-06T12:41:00.274Z,68.19
2023-02-06T12:43:31.187Z,66.85
2023-02-06T12:46:05.434Z,68.02
2023-02-06T12:48:41.138Z,69.06
2023-02-06T12:51:14.179Z,67.16
2023-02-06T12:53:46.278Z,66.06
2023-02-06T12:56:23.926Z,67.29
2023-02-06T12:58:59.768Z,67.50
2023-02-06T13:01:43.035Z,68.04
2023-02-06T13:04:15.001Z,65.91
2023-02-06T13:06:48.198Z,67.07
2023-02-06T13:09:21.308Z,67.13
2023-02-06T13:11:50.563Z,67.65
2023-02-06T13:14:22.214Z,67.62
2023-02-06T13:16:56.232Z,66.21
2023-02-06T13:19:52.147Z,66.44
2023-02-06T13:22:46.047Z,65.01
2023-02-06T13:26:12.407Z,65.57
2023-02-06T13:29:03.785Z,66.09
2023-02-06T13:31:35.647Z,65.89
2023-02-06T13:34:16.223Z,63.20
2023-02-06T13:36:51.156Z,65.10
2023-02-06T13:39:31.927Z,64.43
2023-02-06T13:42:24.768Z,63.54
2023-02-06T13:44:54.182Z,65.70
2023-02-06T13:48:03.370Z,64.99
2023-02-06T13:51:02.837Z,64.37
2023-02-06T13:53:42.792Z,62.69
2023-02-06T13:56:36.097Z,64.77
2023-02-06T13:59:17.517Z,65.47
2023-02-06T14:01:46.788Z,64.54
2023-02-06T14:04:23.914Z,65.19
2023-02-06T14:07:08.786Z,65.51
2023-02-06T14:10:20.461Z,62.00
2023-02-06T14:12:58.284Z,63.89
2023-02-06T14:15:35.016Z,62.52
2023-02-06T14:18:24.092Z,63.47
2023-02-06T14:21:00.033Z,62.89
2023-02-06T14:23:39.953Z,63.48
2023-02-06T14:26:19.007Z,63.38
2023-02-06T14:28:54.290Z,63.29
2023-02-06T14:31:33.303Z,63.03
2023-02-06T14:34:12.544Z,62.08
2023-02-06T14:37:00.188Z,63.43
2023-02-06T14:39:48.314Z,62.48
2023-02-06T14:42:21.028Z,63.35
2023-02-06T14:44:55.128Z,61.49
2023-02-06T14:47:26.756Z,62.60
2023-02-06T14:49:56.349Z,63.23
2023-02-06T14:52:26.963Z,63.13
2023-02-06T14:54:56.578Z,63.86
2023-02-06T14:57:26.254Z,63.71
2023-02-06T14:59:57.373Z,62.82
2023-02-06T15:02:29.755Z,62.50
2023-02-06T15:04:59.801Z,64.03
2023-02-06T15:07:32.036Z,63.11
2023-02-06T15:10:07.541Z,63.23
2023-02-06T15:12:36.879Z,63.50
2023-02-06T15:15:17.966Z,63.16
2023-02-06T15:17:57.722Z,63.49
2023-02-06T15:20:29.298Z,64.64
2023-02-06T15:23:11.601Z,65.24
2023-02-06T15:25:52.499Z,65.40
2023-02-06T15:28:22.838Z,66.05
2023-02-06T15:30:54.989Z,66.14
2023-02-06T15:33:27.908Z,66.09
2023-02-06T15:35:58.369Z,65.78
2023-02-06T15:38:29.080Z,66.12
2023-02-06T15:41:04.771Z,65.36
2023-02-06T15:43:35.601Z,66.10
2023-02-06T15:46:06.430Z,65.96
2023-02-06T15:48:37.556Z,66.66
2023-02-06T15:51:19.975Z,67.16
2023-02-06T15:53:52.812Z,67.79
2023-02-06T15:56:26.646Z,67.97
2023-02-06T15:59:00.388Z,67.85
2023-02-06T16:01:37.197Z,68.48
2023-02-06T16:04:13.255Z,68.30
2023-02-06T16:06:42.783Z,68.58
2023-02-06T16:09:21.430Z,68.90
2023-02-06T16:11:54.427Z,68.97
2023-02-06T16:14:34.138Z,69.14
2023-02-06T16:17:07.373Z,69.32
2023-02-06T16:19:42.231Z,68.79
2023-02-06T16:22:20.823Z,68.30
2023-02-06T16:24:50.895Z,68.76
2023-02-06T16:27:23.580Z,68.51
2023-02-06T16:29:54.726Z,68.70
2023-02-06T16:32:25.705Z,69.44
2023-02-06T16:34:54.526Z,69.81
2023-02-06T16:37:25.231Z,70.46
2023-02-06T16:39:55.029Z,70.48
2023-02-06T16:42:26.393Z,70.64
2023-02-06T16:44:59.728Z,70.85
2023-02-06T16:47:28.281Z,71.57
2023-02-06T16:49:56.879Z,71.59
2023-02-06T16:52:27.453Z,71.60
2023-02-06T16:54:58.946Z,71.53
2023-02-06T16:57:31.392Z,70.68
2023-02-06T17:00:00.651Z,70.23
2023-02-06T17:02:29.549Z,70.50
2023-02-06T17:04:58.304Z,70.78
2023-02-06T17:07:28.107Z,71.01
2023-02-06T17:09:58.025Z,71.55
2023-02-06T17:12:26.538Z,72.35
2023-02-06T17:14:56.826Z,72.60
2023-02-06T17:17:25.620Z,72.23
2023-02-06T17:19:55.534Z,71.79
2023-02-06T17:22:24.128Z,71.74
2023-02-06T17:24:52.909Z,71.84
2023-02-06T17:27:23.314Z,72.00
2023-02-06T17:29:53.887Z,72.09
2023-02-06T17:32:23.897Z,72.44
2023-02-06T17:34:54.417Z,72.74
2023-02-06T17:37:23.037Z,73.14
2023-02-06T17:39:52.996Z,72.98
2023-02-06T17:42:24.480Z,73.19
2023-02-06T17:44:53.262Z,72.36
2023-02-06T17:47:23.280Z,72.68
2023-02-06T17:49:52.056Z,72.43
2023-02-06T17:52:21.067Z,72.31
2023-02-06T17:54:49.861Z,72.64
2023-02-06T17:57:18.692Z,72.05
2023-02-06T17:59:47.341Z,71.86
2023-02-06T18:02:16.311Z,72.34
2023-02-06T18:04:48.953Z,72.21
2023-02-06T18:07:18.099Z,72.15
2023-02-06T18:09:47.195Z,71.82
2023-02-06T18:12:15.974Z,72.24
2023-02-06T18:14:44.784Z,71.82
2023-02-06T18:17:13.092Z,72.13
2023-02-06T18:19:42.760Z,72.06
2023-02-06T18:22:15.529Z,72.40
2023-02-06T18:24:44.527Z,72.38
2023-02-06T18:27:13.934Z,72.51
2023-02-06T18:29:49.856Z,72.42
2023-02-06T18:32:20.679Z,72.41
2023-02-06T18:34:49.504Z,71.99
2023-02-06T18:37:19.625Z,71.90
2023-02-06T18:39:49.357Z,72.37
2023-02-06T18:42:35.525Z,72.37
2023-02-06T18:45:04.412Z,72.24
2023-02-06T18:47:33.406Z,71.94
2023-02-06T18:50:02.402Z,71.77
2023-02-06T18:52:32.518Z,72.56
2023-02-06T18:55:01.300Z,72.56
2023-02-06T18:57:29.843Z,73.05
2023-02-06T18:59:59.089Z,72.54
2023-02-06T19:02:27.626Z,72.94
2023-02-06T19:04:56.091Z,72.41
2023-02-06T19:07:24.936Z,72.98
2023-02-06T19:09:58.843Z,72.77
2023-02-06T19:12:29.432Z,73.07
2023-02-06T19:14:58.878Z,73.06
2023-02-06T19:17:28.591Z,72.91
2023-02-06T19:19:57.392Z,73.23
2023-02-06T19:22:26.075Z,73.22
2023-02-06T19:24:54.662Z,73.31
2023-02-06T19:27:26.304Z,74.07
2023-02-06T19:29:54.844Z,74.47
2023-02-06T19:32:26.126Z,74.23
2023-02-06T19:34:54.818Z,74.70
2023-02-06T19:37:23.098Z,74.78
2023-02-06T19:39:51.753Z,74.79
2023-02-06T19:42:20.293Z,74.29
2023-02-06T19:44:54.886Z,74.27
2023-02-06T19:47:24.495Z,74.58
2023-02-06T19:49:53.583Z,74.76
2023-02-06T19:52:22.731Z,74.38
2023-02-06T19:54:51.243Z,73.51
2023-02-06T19:57:20.021Z,73.81
2023-02-06T19:59:48.807Z,74.16
2023-02-06T20:02:19.024Z,73.75
2023-02-06T20:04:47.818Z,74.39
2023-02-06T20:07:16.403Z,74.01
2023-02-06T20:09:45.445Z,74.29
2023-02-06T20:12:14.327Z,74.21
2023-02-06T20:14:43.131Z,74.61
2023-02-06T20:17:12.082Z,74.42
2023-02-06T20:19:43.532Z,74.73
2023-02-06T20:22:12.361Z,74.25
2023-02-06T20:24:42.005Z,73.81
2023-02-06T20:27:12.957Z,73.59
2023-02-06T20:29:43.492Z,73.67
2023-02-06T20:32:12.568Z,73.87
2023-02-06T20:34:42.993Z,74.51
2023-02-06T20:37:11.803Z,74.41
2023-02-06T20:39:40.487Z,74.21
2023-02-06T20:42:09.274Z,74.43
2023-02-06T20:44:38.024Z,74.81
2023-02-06T20:47:06.829Z,75.35
2023-02-06T20:49:35.642Z,75.50
2023-02-06T20:52:06.436Z,76.15
2023-02-06T20:54:35.125Z,76.17
2023-02-06T20:57:04.152Z,76.47
2023-02-06T20:59:32.836Z,76.61
2023-02-06T21:02:01.546Z,76.80
2023-02-06T21:04:32.971Z,76.80
2023-02-06T21:07:01.798Z,76.82
2023-02-06T21:09:32.022Z,77.21
2023-02-06T21:12:00.654Z,77.20
2023-02-06T21:14:30.168Z,77.44
2023-02-06T21:16:59.094Z,76.75
2023-02-06T21:19:29.354Z,76.21
2023-02-06T21:21:58.088Z,76.47
2023-02-06T21:24:26.584Z,76.66
2023-02-06T21:26:56.458Z,76.27
2023-02-06T21:29:49.735Z,76.63
2023-02-06T21:32:18.560Z,76.45
2023-02-06T21:34:47.702Z,75.88
2023-02-06T21:37:16.553Z,75.54
2023-02-06T21:39:45.240Z,75.42
2023-02-06T21:42:15.398Z,75.56
2023-02-06T21:44:44.253Z,75.62
2023-02-06T21:47:13.000Z,74.91
2023-02-06T21:49:41.629Z,74.97
2023-02-06T21:52:10.090Z,76.03
2023-02-06T21:54:38.885Z,76.08
2023-02-06T21:57:07.685Z,75.91
2023-02-06T21:59:38.659Z,75.86
2023-02-06T22:02:07.388Z,76.21
2023-02-06T22:04:36.206Z,75.77
2023-02-06T22:07:05.333Z,75.74
2023-02-06T22:09:34.807Z,75.58
2023-02-06T22:12:05.637Z,76.27
2023-02-06T22:14:35.511Z,76.25
2023-02-06T22:17:06.087Z,76.45
2023-02-06T22:19:37.820Z,75.88
2023-02-06T22:22:06.642Z,75.87
2023-02-06T22:24:35.412Z,75.89
2023-02-06T22:27:04.423Z,76.08
2023-02-06T22:29:34.742Z,76.27
2023-02-06T22:32:06.158Z,76.62
2023-02-06T22:34:35.168Z,77.16
2023-02-06T22:37:04.152Z,76.82
2023-02-06T22:39:33.266Z,77.27
2023-02-06T22:42:02.873Z,77.39
2023-02-06T22:44:32.070Z,77.34
2023-02-06T22:47:01.069Z,77.35
2023-02-06T22:49:31.314Z,77.21
2023-02-06T22:52:00.251Z,77.57
2023-02-06T22:54:29.269Z,77.43
2023-02-06T22:56:57.968Z,78.28
2023-02-06T22:59:27.144Z,77.68
2023-02-06T23:01:57.979Z,77.72
2023-02-06T23:04:28.782Z,78.13
2023-02-06T23:06:58.944Z,77.87
2023-02-06T23:09:30.081Z,77.60
2023-02-06T23:11:59.737Z,77.88
2023-02-06T23:14:29.115Z,78.68
2023-02-06T23:17:00.717Z,78.42
2023-02-06T23:19:29.489Z,78.24
2023-02-06T23:21:59.604Z,78.80
2023-02-06T23:24:28.358Z,79.55
2023-02-06T23:26:56.921Z,79.52
2023-02-06T23:29:25.943Z,79.81
2023-02-06T23:32:00.939Z,79.95
2023-02-06T23:34:30.368Z,80.01
2023-02-06T23:37:00.424Z,79.92
2023-02-06T23:39:29.219Z,80.43
2023-02-06T23:41:57.989Z,80.45
2023-02-06T23:44:27.612Z,80.58
2023-02-06T23:46:56.497Z,80.89
2023-02-06T23:49:25.285Z,81.06
2023-02-06T23:51:54.076Z,80.44
2023-02-06T23:54:24.199Z,80.45
2023-02-06T23:56:53.271Z,80.79
2023-02-06T23:59:21.968Z,80.17
